sensor_id;sensor_type;location;lat;lon;timestamp;temperature;humidity
10296;DHT22;5193;51.032;6.356;2023-04-04T00:01:32;1.50;99.90
10296;DHT22;5193;51.032;6.356;2023-04-04T00:03:58;1.50;99.90
10296;DHT22;5193;51.032;6.356;2023-04-04T00:06:24;1.40;99.90
10296;DHT22;5193;51.032;6.356;2023-04-04T00:08:49;1.30;99.90
10296;DHT22;5193;51.032;6.356;2023-04-04T00:11:15;1.30;99.90
10296;DHT22;5193;51.032;6.356;2023-04-04T00:13:41;1.30;99.90
10296;DHT22;5193;51.032;6.356;2023-04-04T00:16:06;1.30;99.90
10296;DHT22;5193;51.032;6.356;2023-04-04T00:18:32;1.30;99.90
10296;DHT22;5193;51.032;6.356;2023-04-04T00:20:58;1.20;99.90
10296;DHT22;5193;51.032;6.356;2023-04-04T00:23:24;1.30;99.90
10296;DHT22;5193;51.032;6.356;2023-04-04T00:25:52;1.30;99.90
10296;DHT22;5193;51.032;6.356;2023-04-04T00:28:19;1.30;99.90
10296;DHT22;5193;51.032;6.356;2023-04-04T00:30:45;1.30;99.90
10296;DHT22;5193;51.032;6.356;2023-04-04T00:33:11;1.30;99.90
10296;DHT22;5193;51.032;6.356;2023-04-04T00:35:37;1.30;99.90
10296;DHT22;5193;51.032;6.356;2023-04-04T00:38:02;1.40;99.90
10296;DHT22;5193;51.032;6.356;2023-04-04T00:40:28;1.40;99.90
10296;DHT22;5193;51.032;6.356;2023-04-04T00:42:54;1.40;99.90
10296;DHT22;5193;51.032;6.356;2023-04-04T00:45:20;1.30;99.90
10296;DHT22;5193;51.032;6.356;2023-04-04T00:47:46;1.30;99.90
10296;DHT22;5193;51.032;6.356;2023-04-04T00:50:12;1.20;99.90
10296;DHT22;5193;51.032;6.356;2023-04-04T00:52:37;1.20;99.90
10296;DHT22;5193;51.032;6.356;2023-04-04T00:55:03;1.20;99.90
10296;DHT22;5193;51.032;6.356;2023-04-04T00:57:29;1.20;99.90
10296;DHT22;5193;51.032;6.356;2023-04-04T00:59:58;1.20;99.90
10296;DHT22;5193;51.032;6.356;2023-04-04T01:02:24;1.20;99.90
10296;DHT22;5193;51.032;6.356;2023-04-04T01:04:51;1.20;99.90
10296;DHT22;5193;51.032;6.356;2023-04-04T01:07:17;1.10;99.90
10296;DHT22;5193;51.032;6.356;2023-04-04T01:09:43;1.10;99.90
10296;DHT22;5193;51.032;6.356;2023-04-04T01:12:09;1.00;99.90
10296;DHT22;5193;51.032;6.356;2023-04-04T01:14:35;0.90;99.90
10296;DHT22;5193;51.032;6.356;2023-04-04T01:17:00;0.90;99.90
10296;DHT22;5193;51.032;6.356;2023-04-04T01:19:43;0.90;99.90
10296;DHT22;5193;51.032;6.356;2023-04-04T01:22:11;0.80;99.90
10296;DHT22;5193;51.032;6.356;2023-04-04T01:24:38;0.80;99.90
10296;DHT22;5193;51.032;6.356;2023-04-04T01:27:07;0.80;99.90
10296;DHT22;5193;51.032;6.356;2023-04-04T01:29:32;0.80;99.90
10296;DHT22;5193;51.032;6.356;2023-04-04T01:40:27;0.60;99.90
10296;DHT22;5193;51.032;6.356;2023-04-04T01:42:59;0.60;99.90
10296;DHT22;5193;51.032;6.356;2023-04-04T01:45:25;0.50;99.90
10296;DHT22;5193;51.032;6.356;2023-04-04T01:47:51;0.50;99.90
10296;DHT22;5193;51.032;6.356;2023-04-04T01:50:17;0.40;99.90
10296;DHT22;5193;51.032;6.356;2023-04-04T01:52:43;0.40;99.90
10296;DHT22;5193;51.032;6.356;2023-04-04T01:55:09;0.20;99.90
10296;DHT22;5193;51.032;6.356;2023-04-04T01:57:34;0.30;99.90
10296;DHT22;5193;51.032;6.356;2023-04-04T02:00:00;0.20;99.90
10296;DHT22;5193;51.032;6.356;2023-04-04T02:02:26;0.20;99.90
10296;DHT22;5193;51.032;6.356;2023-04-04T02:04:51;0.20;99.90
10296;DHT22;5193;51.032;6.356;2023-04-04T02:07:18;0.20;99.90
10296;DHT22;5193;51.032;6.356;2023-04-04T02:09:43;0.10;99.90
10296;DHT22;5193;51.032;6.356;2023-04-04T02:12:09;0.10;99.90
10296;DHT22;5193;51.032;6.356;2023-04-04T02:14:35;0.10;99.90
10296;DHT22;5193;51.032;6.356;2023-04-04T02:17:00;0.10;99.90
10296;DHT22;5193;51.032;6.356;2023-04-04T02:19:26;0.00;99.90
10296;DHT22;5193;51.032;6.356;2023-04-04T02:21:51;0.00;99.90
10296;DHT22;5193;51.032;6.356;2023-04-04T02:24:17;0.00;99.90
10296;DHT22;5193;51.032;6.356;2023-04-04T02:26:42;0.00;99.90
10296;DHT22;5193;51.032;6.356;2023-04-04T02:29:08;0.00;99.90
10296;DHT22;5193;51.032;6.356;2023-04-04T02:31:34;0.00;99.90
10296;DHT22;5193;51.032;6.356;2023-04-04T02:33:59;0.00;99.90
10296;DHT22;5193;51.032;6.356;2023-04-04T02:36:25;0.00;99.90
10296;DHT22;5193;51.032;6.356;2023-04-04T02:38:51;0.00;99.90
10296;DHT22;5193;51.032;6.356;2023-04-04T02:41:18;0.00;99.90
10296;DHT22;5193;51.032;6.356;2023-04-04T02:43:43;-0.10;99.90
10296;DHT22;5193;51.032;6.356;2023-04-04T02:46:09;-0.10;99.90
10296;DHT22;5193;51.032;6.356;2023-04-04T02:48:34;-0.10;99.90
10296;DHT22;5193;51.032;6.356;2023-04-04T02:51:00;-0.20;99.90
10296;DHT22;5193;51.032;6.356;2023-04-04T02:53:26;-0.20;99.90
10296;DHT22;5193;51.032;6.356;2023-04-04T02:55:52;-0.20;99.90
10296;DHT22;5193;51.032;6.356;2023-04-04T02:58:18;-0.30;99.90
10296;DHT22;5193;51.032;6.356;2023-04-04T03:00:43;-0.30;99.90
10296;DHT22;5193;51.032;6.356;2023-04-04T03:03:11;-0.30;99.90
10296;DHT22;5193;51.032;6.356;2023-04-04T03:05:37;-0.30;99.90
10296;DHT22;5193;51.032;6.356;2023-04-04T03:08:02;-0.30;99.90
10296;DHT22;5193;51.032;6.356;2023-04-04T03:10:28;-0.20;99.90
10296;DHT22;5193;51.032;6.356;2023-04-04T03:12:54;-0.20;99.90
10296;DHT22;5193;51.032;6.356;2023-04-04T03:15:20;-0.10;99.90
10296;DHT22;5193;51.032;6.356;2023-04-04T03:17:46;-0.20;99.90
10296;DHT22;5193;51.032;6.356;2023-04-04T03:20:12;-0.20;99.90
10296;DHT22;5193;51.032;6.356;2023-04-04T03:22:39;-0.30;99.90
10296;DHT22;5193;51.032;6.356;2023-04-04T03:25:05;-0.30;99.90
10296;DHT22;5193;51.032;6.356;2023-04-04T03:27:31;-0.30;99.90
10296;DHT22;5193;51.032;6.356;2023-04-04T03:29:57;-0.40;99.90
10296;DHT22;5193;51.032;6.356;2023-04-04T03:32:24;-0.40;99.90
10296;DHT22;5193;51.032;6.356;2023-04-04T03:34:49;-0.40;99.90
10296;DHT22;5193;51.032;6.356;2023-04-04T03:37:16;-0.40;99.90
10296;DHT22;5193;51.032;6.356;2023-04-04T03:39:42;-0.30;99.90
10296;DHT22;5193;51.032;6.356;2023-04-04T03:42:08;-0.20;99.90
10296;DHT22;5193;51.032;6.356;2023-04-04T03:44:33;-0.20;99.90
10296;DHT22;5193;51.032;6.356;2023-04-04T03:47:00;-0.20;99.90
10296;DHT22;5193;51.032;6.356;2023-04-04T03:49:26;-0.10;99.90
10296;DHT22;5193;51.032;6.356;2023-04-04T03:51:52;-0.20;99.90
10296;DHT22;5193;51.032;6.356;2023-04-04T03:54:17;-0.20;99.90
10296;DHT22;5193;51.032;6.356;2023-04-04T03:56:43;-0.20;99.90
10296;DHT22;5193;51.032;6.356;2023-04-04T03:59:09;-0.20;99.90
10296;DHT22;5193;51.032;6.356;2023-04-04T04:01:34;-0.20;99.90
10296;DHT22;5193;51.032;6.356;2023-04-04T04:04:00;-0.30;99.90
10296;DHT22;5193;51.032;6.356;2023-04-04T04:06:26;-0.40;99.90
10296;DHT22;5193;51.032;6.356;2023-04-04T04:08:51;-0.40;99.90
10296;DHT22;5193;51.032;6.356;2023-04-04T04:11:17;-0.50;99.90
10296;DHT22;5193;51.032;6.356;2023-04-04T04:13:43;-0.50;99.90
10296;DHT22;5193;51.032;6.356;2023-04-04T04:16:09;-0.50;99.90
10296;DHT22;5193;51.032;6.356;2023-04-04T04:18:34;-0.50;99.90
10296;DHT22;5193;51.032;6.356;2023-04-04T04:21:00;-0.50;99.90
10296;DHT22;5193;51.032;6.356;2023-04-04T04:23:29;-0.40;99.90
10296;DHT22;5193;51.032;6.356;2023-04-04T04:25:55;-0.50;99.90
10296;DHT22;5193;51.032;6.356;2023-04-04T04:28:21;-0.50;99.90
10296;DHT22;5193;51.032;6.356;2023-04-04T04:30:48;-0.40;99.90
10296;DHT22;5193;51.032;6.356;2023-04-04T04:33:13;-0.50;99.90
10296;DHT22;5193;51.032;6.356;2023-04-04T04:35:39;-0.60;99.90
10296;DHT22;5193;51.032;6.356;2023-04-04T04:38:05;-0.60;99.90
10296;DHT22;5193;51.032;6.356;2023-04-04T04:40:31;-0.70;99.90
10296;DHT22;5193;51.032;6.356;2023-04-04T04:42:57;-0.80;99.90
10296;DHT22;5193;51.032;6.356;2023-04-04T04:45:23;-0.80;99.90
10296;DHT22;5193;51.032;6.356;2023-04-04T04:47:49;-0.90;99.90
10296;DHT22;5193;51.032;6.356;2023-04-04T04:50:15;-1.00;99.90
10296;DHT22;5193;51.032;6.356;2023-04-04T04:52:42;-1.10;99.90
10296;DHT22;5193;51.032;6.356;2023-04-04T04:55:08;-1.20;99.90
10296;DHT22;5193;51.032;6.356;2023-04-04T04:57:34;-1.20;99.90
10296;DHT22;5193;51.032;6.356;2023-04-04T05:00:00;-1.30;99.90
10296;DHT22;5193;51.032;6.356;2023-04-04T05:02:26;-1.30;99.90
10296;DHT22;5193;51.032;6.356;2023-04-04T05:04:52;-1.40;99.90
10296;DHT22;5193;51.032;6.356;2023-04-04T05:07:17;-1.40;99.90
10296;DHT22;5193;51.032;6.356;2023-04-04T05:09:43;-1.50;99.90
10296;DHT22;5193;51.032;6.356;2023-04-04T05:12:08;-1.50;99.90
10296;DHT22;5193;51.032;6.356;2023-04-04T05:14:34;-1.60;99.90
10296;DHT22;5193;51.032;6.356;2023-04-04T05:17:00;-1.60;99.90
10296;DHT22;5193;51.032;6.356;2023-04-04T05:19:26;-1.60;99.90
10296;DHT22;5193;51.032;6.356;2023-04-04T05:21:51;-1.70;99.90
10296;DHT22;5193;51.032;6.356;2023-04-04T05:24:18;-1.70;99.90
10296;DHT22;5193;51.032;6.356;2023-04-04T05:26:44;-1.70;99.90
10296;DHT22;5193;51.032;6.356;2023-04-04T05:29:09;-1.70;99.90
10296;DHT22;5193;51.032;6.356;2023-04-04T05:31:35;-1.70;99.90
10296;DHT22;5193;51.032;6.356;2023-04-04T05:34:01;-1.70;99.90
10296;DHT22;5193;51.032;6.356;2023-04-04T05:36:35;-1.70;99.90
10296;DHT22;5193;51.032;6.356;2023-04-04T05:39:04;-1.80;99.90
10296;DHT22;5193;51.032;6.356;2023-04-04T05:41:31;-1.80;99.90
10296;DHT22;5193;51.032;6.356;2023-04-04T05:43:56;-1.70;99.90
10296;DHT22;5193;51.032;6.356;2023-04-04T05:46:22;-1.70;99.90
10296;DHT22;5193;51.032;6.356;2023-04-04T05:48:48;-1.80;99.90
10296;DHT22;5193;51.032;6.356;2023-04-04T05:51:15;-1.80;99.90
10296;DHT22;5193;51.032;6.356;2023-04-04T05:53:41;-1.70;99.90
10296;DHT22;5193;51.032;6.356;2023-04-04T05:56:07;-1.70;99.90
10296;DHT22;5193;51.032;6.356;2023-04-04T05:58:32;-1.60;99.90
10296;DHT22;5193;51.032;6.356;2023-04-04T06:00:58;-1.60;99.90
10296;DHT22;5193;51.032;6.356;2023-04-04T06:03:23;-1.50;99.90
10296;DHT22;5193;51.032;6.356;2023-04-04T06:05:52;-1.50;99.90
10296;DHT22;5193;51.032;6.356;2023-04-04T06:08:18;-1.40;99.90
10296;DHT22;5193;51.032;6.356;2023-04-04T06:10:43;-1.30;99.90
10296;DHT22;5193;51.032;6.356;2023-04-04T06:13:09;-1.30;99.90
10296;DHT22;5193;51.032;6.356;2023-04-04T06:15:34;-1.20;99.90
10296;DHT22;5193;51.032;6.356;2023-04-04T06:18:00;-1.10;99.90
10296;DHT22;5193;51.032;6.356;2023-04-04T06:20:26;-1.00;99.90
10296;DHT22;5193;51.032;6.356;2023-04-04T06:22:51;-0.90;99.90
10296;DHT22;5193;51.032;6.356;2023-04-04T06:25:18;-0.80;99.90
10296;DHT22;5193;51.032;6.356;2023-04-04T06:27:44;-0.60;99.90
10296;DHT22;5193;51.032;6.356;2023-04-04T06:30:10;-0.50;99.90
10296;DHT22;5193;51.032;6.356;2023-04-04T06:32:36;-0.30;99.90
10296;DHT22;5193;51.032;6.356;2023-04-04T06:35:01;-0.10;99.90
10296;DHT22;5193;51.032;6.356;2023-04-04T06:37:28;0.00;99.90
10296;DHT22;5193;51.032;6.356;2023-04-04T06:39:54;0.30;99.90
10296;DHT22;5193;51.032;6.356;2023-04-04T06:42:20;0.40;99.90
10296;DHT22;5193;51.032;6.356;2023-04-04T06:44:45;0.60;99.90
10296;DHT22;5193;51.032;6.356;2023-04-04T06:47:11;0.80;99.90
10296;DHT22;5193;51.032;6.356;2023-04-04T06:49:36;0.90;99.90
10296;DHT22;5193;51.032;6.356;2023-04-04T06:52:02;1.10;99.90
10296;DHT22;5193;51.032;6.356;2023-04-04T06:54:29;1.20;99.90
10296;DHT22;5193;51.032;6.356;2023-04-04T06:56:54;1.40;99.90
10296;DHT22;5193;51.032;6.356;2023-04-04T06:59:20;1.50;99.90
10296;DHT22;5193;51.032;6.356;2023-04-04T07:01:45;1.70;99.90
10296;DHT22;5193;51.032;6.356;2023-04-04T07:04:11;1.80;99.90
10296;DHT22;5193;51.032;6.356;2023-04-04T07:06:36;1.90;99.90
10296;DHT22;5193;51.032;6.356;2023-04-04T07:09:02;2.00;99.90
10296;DHT22;5193;51.032;6.356;2023-04-04T07:11:29;2.20;99.90
10296;DHT22;5193;51.032;6.356;2023-04-04T07:13:55;2.30;99.90
10296;DHT22;5193;51.032;6.356;2023-04-04T07:16:20;2.50;99.90
10296;DHT22;5193;51.032;6.356;2023-04-04T07:18:46;2.60;99.90
10296;DHT22;5193;51.032;6.356;2023-04-04T07:21:12;2.70;99.90
10296;DHT22;5193;51.032;6.356;2023-04-04T07:23:38;2.80;99.90
10296;DHT22;5193;51.032;6.356;2023-04-04T07:26:03;3.10;99.90
10296;DHT22;5193;51.032;6.356;2023-04-04T07:28:29;3.20;99.90
10296;DHT22;5193;51.032;6.356;2023-04-04T07:30:59;3.50;99.90
10296;DHT22;5193;51.032;6.356;2023-04-04T07:33:25;3.60;99.90
10296;DHT22;5193;51.032;6.356;2023-04-04T07:35:51;3.70;99.90
10296;DHT22;5193;51.032;6.356;2023-04-04T07:38:17;3.90;99.90
10296;DHT22;5193;51.032;6.356;2023-04-04T07:40:43;4.00;99.90
10296;DHT22;5193;51.032;6.356;2023-04-04T07:43:09;4.10;99.90
10296;DHT22;5193;51.032;6.356;2023-04-04T07:45:34;4.20;99.90
10296;DHT22;5193;51.032;6.356;2023-04-04T07:48:00;4.40;99.90
10296;DHT22;5193;51.032;6.356;2023-04-04T07:50:26;4.70;99.90
10296;DHT22;5193;51.032;6.356;2023-04-04T07:52:52;4.90;99.90
10296;DHT22;5193;51.032;6.356;2023-04-04T07:55:20;5.10;99.90
10296;DHT22;5193;51.032;6.356;2023-04-04T07:57:46;5.30;99.90
10296;DHT22;5193;51.032;6.356;2023-04-04T08:00:12;5.30;99.90
10296;DHT22;5193;51.032;6.356;2023-04-04T08:02:38;5.20;99.90
10296;DHT22;5193;51.032;6.356;2023-04-04T08:05:04;5.30;99.90
10296;DHT22;5193;51.032;6.356;2023-04-04T08:07:30;5.20;99.90
10296;DHT22;5193;51.032;6.356;2023-04-04T08:09:56;5.40;99.90
10296;DHT22;5193;51.032;6.356;2023-04-04T08:12:21;5.60;99.90
10296;DHT22;5193;51.032;6.356;2023-04-04T08:14:47;5.80;99.90
10296;DHT22;5193;51.032;6.356;2023-04-04T08:17:13;5.90;99.90
10296;DHT22;5193;51.032;6.356;2023-04-04T08:19:43;6.00;99.90
10296;DHT22;5193;51.032;6.356;2023-04-04T08:22:08;6.10;99.90
10296;DHT22;5193;51.032;6.356;2023-04-04T08:24:34;6.30;99.90
10296;DHT22;5193;51.032;6.356;2023-04-04T08:27:01;6.40;99.90
10296;DHT22;5193;51.032;6.356;2023-04-04T08:29:26;6.50;99.90
10296;DHT22;5193;51.032;6.356;2023-04-04T08:31:53;6.70;99.90
10296;DHT22;5193;51.032;6.356;2023-04-04T08:34:18;6.70;99.90
10296;DHT22;5193;51.032;6.356;2023-04-04T08:36:45;6.80;99.90
10296;DHT22;5193;51.032;6.356;2023-04-04T08:39:10;6.70;99.90
10296;DHT22;5193;51.032;6.356;2023-04-04T08:41:37;6.60;99.90
10296;DHT22;5193;51.032;6.356;2023-04-04T08:44:03;6.50;99.90
10296;DHT22;5193;51.032;6.356;2023-04-04T08:46:30;6.50;99.90
10296;DHT22;5193;51.032;6.356;2023-04-04T08:48:57;6.50;99.90
10296;DHT22;5193;51.032;6.356;2023-04-04T08:51:25;6.70;99.90
10296;DHT22;5193;51.032;6.356;2023-04-04T08:53:54;6.80;99.90
10296;DHT22;5193;51.032;6.356;2023-04-04T08:56:21;6.90;99.90
10296;DHT22;5193;51.032;6.356;2023-04-04T08:58:47;7.00;99.90
10296;DHT22;5193;51.032;6.356;2023-04-04T09:01:12;7.10;99.90
10296;DHT22;5193;51.032;6.356;2023-04-04T09:03:39;7.30;99.90
10296;DHT22;5193;51.032;6.356;2023-04-04T09:06:06;7.30;99.90
10296;DHT22;5193;51.032;6.356;2023-04-04T09:08:33;7.50;99.90
10296;DHT22;5193;51.032;6.356;2023-04-04T09:11:01;7.60;99.90
10296;DHT22;5193;51.032;6.356;2023-04-04T09:13:27;7.70;99.90
10296;DHT22;5193;51.032;6.356;2023-04-04T09:15:54;7.70;99.90
10296;DHT22;5193;51.032;6.356;2023-04-04T09:18:21;7.60;99.90
10296;DHT22;5193;51.032;6.356;2023-04-04T09:20:47;7.40;99.90
10296;DHT22;5193;51.032;6.356;2023-04-04T09:23:18;7.10;99.90
10296;DHT22;5193;51.032;6.356;2023-04-04T09:25:48;7.10;99.90
10296;DHT22;5193;51.032;6.356;2023-04-04T09:28:15;7.30;99.90
10296;DHT22;5193;51.032;6.356;2023-04-04T09:30:41;7.50;99.90
10296;DHT22;5193;51.032;6.356;2023-04-04T09:33:11;7.70;99.90
10296;DHT22;5193;51.032;6.356;2023-04-04T09:35:39;7.50;99.90
10296;DHT22;5193;51.032;6.356;2023-04-04T09:38:08;7.30;99.90
10296;DHT22;5193;51.032;6.356;2023-04-04T09:40:37;7.30;99.90
10296;DHT22;5193;51.032;6.356;2023-04-04T09:43:07;7.40;99.90
10296;DHT22;5193;51.032;6.356;2023-04-04T09:45:33;7.20;99.90
10296;DHT22;5193;51.032;6.356;2023-04-04T09:48:00;7.20;99.90
10296;DHT22;5193;51.032;6.356;2023-04-04T09:50:26;7.10;99.90
10296;DHT22;5193;51.032;6.356;2023-04-04T09:52:56;7.10;99.90
10296;DHT22;5193;51.032;6.356;2023-04-04T09:55:36;7.20;99.90
10296;DHT22;5193;51.032;6.356;2023-04-04T09:58:11;7.10;99.90
10296;DHT22;5193;51.032;6.356;2023-04-04T10:00:39;7.10;99.90
10296;DHT22;5193;51.032;6.356;2023-04-04T10:03:06;7.10;99.90
10296;DHT22;5193;51.032;6.356;2023-04-04T10:05:32;7.30;99.90
10296;DHT22;5193;51.032;6.356;2023-04-04T10:07:58;7.30;99.90
10296;DHT22;5193;51.032;6.356;2023-04-04T10:10:26;7.30;99.90
10296;DHT22;5193;51.032;6.356;2023-04-04T10:12:56;7.60;99.90
10296;DHT22;5193;51.032;6.356;2023-04-04T10:15:22;7.80;99.90
10296;DHT22;5193;51.032;6.356;2023-04-04T10:17:52;8.00;99.90
10296;DHT22;5193;51.032;6.356;2023-04-04T10:20:18;8.10;99.90
10296;DHT22;5193;51.032;6.356;2023-04-04T10:22:45;8.20;99.90
10296;DHT22;5193;51.032;6.356;2023-04-04T10:25:11;8.40;99.90
10296;DHT22;5193;51.032;6.356;2023-04-04T10:27:36;8.60;99.90
10296;DHT22;5193;51.032;6.356;2023-04-04T10:30:03;8.50;99.90
10296;DHT22;5193;51.032;6.356;2023-04-04T10:33:00;8.60;99.90
10296;DHT22;5193;51.032;6.356;2023-04-04T10:35:26;8.60;99.90
10296;DHT22;5193;51.032;6.356;2023-04-04T10:37:58;8.80;99.90
10296;DHT22;5193;51.032;6.356;2023-04-04T10:40:25;8.80;99.90
10296;DHT22;5193;51.032;6.356;2023-04-04T10:42:52;8.80;99.90
10296;DHT22;5193;51.032;6.356;2023-04-04T10:45:20;8.90;99.90
10296;DHT22;5193;51.032;6.356;2023-04-04T10:47:46;9.00;99.90
10296;DHT22;5193;51.032;6.356;2023-04-04T10:50:12;9.10;99.90
10296;DHT22;5193;51.032;6.356;2023-04-04T10:52:41;9.20;99.90
10296;DHT22;5193;51.032;6.356;2023-04-04T10:55:13;9.10;99.90
10296;DHT22;5193;51.032;6.356;2023-04-04T10:57:49;9.00;99.90
10296;DHT22;5193;51.032;6.356;2023-04-04T11:00:20;9.00;99.90
10296;DHT22;5193;51.032;6.356;2023-04-04T11:08:18;9.30;99.90
10296;DHT22;5193;51.032;6.356;2023-04-04T11:10:47;9.40;99.90
10296;DHT22;5193;51.032;6.356;2023-04-04T11:13:17;9.50;99.90
10296;DHT22;5193;51.032;6.356;2023-04-04T11:16:00;9.60;99.90
10296;DHT22;5193;51.032;6.356;2023-04-04T11:21:15;9.50;99.90
10296;DHT22;5193;51.032;6.356;2023-04-04T11:26:17;9.50;99.90
10296;DHT22;5193;51.032;6.356;2023-04-04T11:28:44;9.50;99.90
10296;DHT22;5193;51.032;6.356;2023-04-04T11:36:50;10.00;99.90
10296;DHT22;5193;51.032;6.356;2023-04-04T11:39:31;10.00;99.90
10296;DHT22;5193;51.032;6.356;2023-04-04T11:42:13;10.10;99.90
10296;DHT22;5193;51.032;6.356;2023-04-04T11:47:24;9.70;99.90
10296;DHT22;5193;51.032;6.356;2023-04-04T11:49:51;9.80;99.90
10296;DHT22;5193;51.032;6.356;2023-04-04T11:52:17;10.00;99.90
10296;DHT22;5193;51.032;6.356;2023-04-04T11:54:45;10.30;99.90
10296;DHT22;5193;51.032;6.356;2023-04-04T11:57:12;10.30;99.90
10296;DHT22;5193;51.032;6.356;2023-04-04T11:59:46;10.10;99.90
10296;DHT22;5193;51.032;6.356;2023-04-04T12:02:15;10.10;99.90
10296;DHT22;5193;51.032;6.356;2023-04-04T12:04:41;10.40;99.90
10296;DHT22;5193;51.032;6.356;2023-04-04T12:07:10;10.60;99.90
10296;DHT22;5193;51.032;6.356;2023-04-04T12:09:37;10.50;99.00
10296;DHT22;5193;51.032;6.356;2023-04-04T12:12:03;10.20;98.20
10296;DHT22;5193;51.032;6.356;2023-04-04T12:14:31;9.90;97.90
10296;DHT22;5193;51.032;6.356;2023-04-04T12:16:57;9.70;99.90
10296;DHT22;5193;51.032;6.356;2023-04-04T12:19:24;9.70;99.90
10296;DHT22;5193;51.032;6.356;2023-04-04T12:21:51;9.80;99.90
10296;DHT22;5193;51.032;6.356;2023-04-04T12:24:17;9.80;99.40
10296;DHT22;5193;51.032;6.356;2023-04-04T12:26:49;9.80;99.90
10296;DHT22;5193;51.032;6.356;2023-04-04T12:29:16;10.10;99.20
10296;DHT22;5193;51.032;6.356;2023-04-04T12:31:44;10.20;99.90
10296;DHT22;5193;51.032;6.356;2023-04-04T12:34:31;10.30;99.30
10296;DHT22;5193;51.032;6.356;2023-04-04T12:36:57;10.30;99.90
10296;DHT22;5193;51.032;6.356;2023-04-04T12:39:27;10.30;99.00
10296;DHT22;5193;51.032;6.356;2023-04-04T12:42:00;10.30;99.50
10296;DHT22;5193;51.032;6.356;2023-04-04T12:44:37;10.30;97.90
10296;DHT22;5193;51.032;6.356;2023-04-04T12:47:05;10.20;97.50
10296;DHT22;5193;51.032;6.356;2023-04-04T12:52:05;10.30;96.10
10296;DHT22;5193;51.032;6.356;2023-04-04T12:54:34;10.20;96.10
10296;DHT22;5193;51.032;6.356;2023-04-04T12:57:04;10.20;96.10
10296;DHT22;5193;51.032;6.356;2023-04-04T12:59:31;10.30;99.50
10296;DHT22;5193;51.032;6.356;2023-04-04T13:02:07;10.40;95.10
10296;DHT22;5193;51.032;6.356;2023-04-04T13:04:38;10.30;96.10
10296;DHT22;5193;51.032;6.356;2023-04-04T13:07:19;10.30;95.70
10296;DHT22;5193;51.032;6.356;2023-04-04T13:09:56;10.30;94.80
10296;DHT22;5193;51.032;6.356;2023-04-04T13:12:22;10.20;94.30
10296;DHT22;5193;51.032;6.356;2023-04-04T13:14:59;10.30;99.90
10296;DHT22;5193;51.032;6.356;2023-04-04T13:17:40;10.60;99.70
10296;DHT22;5193;51.032;6.356;2023-04-04T13:20:06;10.80;97.00
10296;DHT22;5193;51.032;6.356;2023-04-04T13:22:36;10.70;95.80
10296;DHT22;5193;51.032;6.356;2023-04-04T13:25:03;10.70;99.90
10296;DHT22;5193;51.032;6.356;2023-04-04T13:27:29;10.90;99.90
10296;DHT22;5193;51.032;6.356;2023-04-04T13:29:55;10.90;95.80
10296;DHT22;5193;51.032;6.356;2023-04-04T13:32:20;10.70;95.20
10296;DHT22;5193;51.032;6.356;2023-04-04T13:34:46;10.80;99.90
10296;DHT22;5193;51.032;6.356;2023-04-04T13:37:11;10.90;98.30
10296;DHT22;5193;51.032;6.356;2023-04-04T13:39:37;10.90;96.40
10296;DHT22;5193;51.032;6.356;2023-04-04T13:42:03;11.00;96.50
10296;DHT22;5193;51.032;6.356;2023-04-04T13:44:28;10.90;94.80
10296;DHT22;5193;51.032;6.356;2023-04-04T13:46:54;11.00;98.20
10296;DHT22;5193;51.032;6.356;2023-04-04T13:49:20;11.00;94.10
10296;DHT22;5193;51.032;6.356;2023-04-04T13:51:46;10.90;96.20
10296;DHT22;5193;51.032;6.356;2023-04-04T13:54:12;11.00;95.10
10296;DHT22;5193;51.032;6.356;2023-04-04T13:56:38;11.10;98.10
10296;DHT22;5193;51.032;6.356;2023-04-04T13:59:04;11.30;95.90
10296;DHT22;5193;51.032;6.356;2023-04-04T14:01:29;11.40;99.00
10296;DHT22;5193;51.032;6.356;2023-04-04T14:03:55;11.70;99.90
10296;DHT22;5193;51.032;6.356;2023-04-04T14:06:21;11.70;93.60
10296;DHT22;5193;51.032;6.356;2023-04-04T14:08:46;11.40;91.50
10296;DHT22;5193;51.032;6.356;2023-04-04T14:11:13;11.30;93.10
10296;DHT22;5193;51.032;6.356;2023-04-04T14:13:38;11.10;92.80
10296;DHT22;5193;51.032;6.356;2023-04-04T14:16:06;11.10;95.70
10296;DHT22;5193;51.032;6.356;2023-04-04T14:18:32;11.30;96.60
10296;DHT22;5193;51.032;6.356;2023-04-04T14:20:59;11.30;92.60
10296;DHT22;5193;51.032;6.356;2023-04-04T14:23:24;11.30;97.60
10296;DHT22;5193;51.032;6.356;2023-04-04T14:25:50;11.50;98.60
10296;DHT22;5193;51.032;6.356;2023-04-04T14:28:16;11.80;99.90
10296;DHT22;5193;51.032;6.356;2023-04-04T14:30:41;12.00;99.90
10296;DHT22;5193;51.032;6.356;2023-04-04T14:33:07;12.00;97.90
10296;DHT22;5193;51.032;6.356;2023-04-04T14:35:33;12.00;95.60
10296;DHT22;5193;51.032;6.356;2023-04-04T14:37:58;11.90;95.80
10296;DHT22;5193;51.032;6.356;2023-04-04T14:40:24;11.90;93.40
10296;DHT22;5193;51.032;6.356;2023-04-04T14:42:49;11.80;93.70
10296;DHT22;5193;51.032;6.356;2023-04-04T14:45:15;11.80;94.30
10296;DHT22;5193;51.032;6.356;2023-04-04T14:47:40;11.90;94.50
10296;DHT22;5193;51.032;6.356;2023-04-04T14:50:07;11.90;92.70
10296;DHT22;5193;51.032;6.356;2023-04-04T14:52:32;11.90;94.90
10296;DHT22;5193;51.032;6.356;2023-04-04T14:54:58;12.00;95.60
10296;DHT22;5193;51.032;6.356;2023-04-04T14:57:24;11.80;91.70
10296;DHT22;5193;51.032;6.356;2023-04-04T14:59:49;11.70;92.00
10296;DHT22;5193;51.032;6.356;2023-04-04T15:02:15;11.70;91.40
10296;DHT22;5193;51.032;6.356;2023-04-04T15:04:41;11.50;91.40
10296;DHT22;5193;51.032;6.356;2023-04-04T15:07:07;11.40;92.30
10296;DHT22;5193;51.032;6.356;2023-04-04T15:09:33;11.50;92.80
10296;DHT22;5193;51.032;6.356;2023-04-04T15:11:58;11.50;90.60
10296;DHT22;5193;51.032;6.356;2023-04-04T15:14:24;11.50;92.20
10296;DHT22;5193;51.032;6.356;2023-04-04T15:16:50;11.60;97.90
10296;DHT22;5193;51.032;6.356;2023-04-04T15:19:15;11.70;94.10
10296;DHT22;5193;51.032;6.356;2023-04-04T15:21:41;11.70;93.50
10296;DHT22;5193;51.032;6.356;2023-04-04T15:24:07;11.70;92.30
10296;DHT22;5193;51.032;6.356;2023-04-04T15:26:32;11.70;92.40
10296;DHT22;5193;51.032;6.356;2023-04-04T15:28:58;11.70;91.80
10296;DHT22;5193;51.032;6.356;2023-04-04T15:31:24;11.70;90.30
10296;DHT22;5193;51.032;6.356;2023-04-04T15:33:51;11.80;90.20
10296;DHT22;5193;51.032;6.356;2023-04-04T15:36:16;11.80;92.90
10296;DHT22;5193;51.032;6.356;2023-04-04T15:38:42;11.90;93.80
10296;DHT22;5193;51.032;6.356;2023-04-04T15:41:08;12.00;93.10
10296;DHT22;5193;51.032;6.356;2023-04-04T15:43:35;12.00;91.60
10296;DHT22;5193;51.032;6.356;2023-04-04T15:46:01;12.00;92.20
10296;DHT22;5193;51.032;6.356;2023-04-04T15:48:26;12.10;93.60
10296;DHT22;5193;51.032;6.356;2023-04-04T15:50:58;12.10;94.00
10296;DHT22;5193;51.032;6.356;2023-04-04T15:53:26;12.20;97.10
10296;DHT22;5193;51.032;6.356;2023-04-04T15:55:52;12.20;92.30
10296;DHT22;5193;51.032;6.356;2023-04-04T15:58:17;12.00;91.10
10296;DHT22;5193;51.032;6.356;2023-04-04T16:00:46;11.90;91.10
10296;DHT22;5193;51.032;6.356;2023-04-04T16:03:12;11.70;91.10
10296;DHT22;5193;51.032;6.356;2023-04-04T16:05:37;11.70;92.60
10296;DHT22;5193;51.032;6.356;2023-04-04T16:08:03;11.70;92.80
10296;DHT22;5193;51.032;6.356;2023-04-04T16:10:29;11.60;92.80
10296;DHT22;5193;51.032;6.356;2023-04-04T16:12:54;11.70;93.40
10296;DHT22;5193;51.032;6.356;2023-04-04T16:15:20;11.70;92.00
10296;DHT22;5193;51.032;6.356;2023-04-04T16:17:46;11.80;96.30
10296;DHT22;5193;51.032;6.356;2023-04-04T16:20:11;12.10;97.00